sensor_id;sensor_type;location;lat;lon;timestamp;temperature;humidity
65559;DHT22;52203;51.998;5.140;2022-10-23T00:00:18;5.93;118.99
65559;DHT22;52203;51.998;5.140;2022-10-23T00:02:43;5.94;118.99
65559;DHT22;52203;51.998;5.140;2022-10-23T00:05:09;5.82;118.99
65559;DHT22;52203;51.998;5.140;2022-10-23T00:07:35;5.84;118.99
65559;DHT22;52203;51.998;5.140;2022-10-23T00:10:00;5.76;118.99
65559;DHT22;52203;51.998;5.140;2022-10-23T00:12:26;5.70;118.99
65559;DHT22;52203;51.998;5.140;2022-10-23T00:14:52;5.81;118.99
65559;DHT22;52203;51.998;5.140;2022-10-23T00:17:18;5.79;118.99
65559;DHT22;52203;51.998;5.140;2022-10-23T00:19:43;5.79;118.99
65559;DHT22;52203;51.998;5.140;2022-10-23T00:22:09;5.79;118.99
65559;DHT22;52203;51.998;5.140;2022-10-23T00:24:35;5.80;118.99
65559;DHT22;52203;51.998;5.140;2022-10-23T00:27:01;5.77;118.99
65559;DHT22;52203;51.998;5.140;2022-10-23T00:29:26;5.75;118.99
65559;DHT22;52203;51.998;5.140;2022-10-23T00:31:52;5.91;118.99
65559;DHT22;52203;51.998;5.140;2022-10-23T00:34:18;5.90;118.99
65559;DHT22;52203;51.998;5.140;2022-10-23T00:36:44;5.84;118.99
65559;DHT22;52203;51.998;5.140;2022-10-23T00:39:09;5.89;118.99
65559;DHT22;52203;51.998;5.140;2022-10-23T00:41:35;5.87;118.99
65559;DHT22;52203;51.998;5.140;2022-10-23T00:44:07;5.84;118.99
65559;DHT22;52203;51.998;5.140;2022-10-23T00:46:34;5.98;118.99
65559;DHT22;52203;51.998;5.140;2022-10-23T00:49:01;5.99;118.99
65559;DHT22;52203;51.998;5.140;2022-10-23T00:51:32;5.95;118.99
65559;DHT22;52203;51.998;5.140;2022-10-23T00:53:59;5.94;118.99
65559;DHT22;52203;51.998;5.140;2022-10-23T00:56:26;5.97;118.99
65559;DHT22;52203;51.998;5.140;2022-10-23T00:58:52;5.95;118.99
65559;DHT22;52203;51.998;5.140;2022-10-23T01:01:20;6.02;118.99
65559;DHT22;52203;51.998;5.140;2022-10-23T01:03:46;6.00;118.99
65559;DHT22;52203;51.998;5.140;2022-10-23T01:09:24;5.96;118.99
65559;DHT22;52203;51.998;5.140;2022-10-23T01:14:28;6.00;118.99
65559;DHT22;52203;51.998;5.140;2022-10-23T01:17:06;6.02;118.99
65559;DHT22;52203;51.998;5.140;2022-10-23T01:19:45;5.96;118.99
65559;DHT22;52203;51.998;5.140;2022-10-23T01:27:57;5.84;118.99
65559;DHT22;52203;51.998;5.140;2022-10-23T01:30:24;5.84;118.99
65559;DHT22;52203;51.998;5.140;2022-10-23T01:33:12;5.75;118.99
65559;DHT22;52203;51.998;5.140;2022-10-23T01:35:47;5.72;118.99
65559;DHT22;52203;51.998;5.140;2022-10-23T01:38:21;5.74;118.99
65559;DHT22;52203;51.998;5.140;2022-10-23T01:40:57;5.71;118.99
65559;DHT22;52203;51.998;5.140;2022-10-23T01:43:31;5.74;118.99
65559;DHT22;52203;51.998;5.140;2022-10-23T01:46:05;5.78;118.99
65559;DHT22;52203;51.998;5.140;2022-10-23T01:48:33;5.86;118.99
65559;DHT22;52203;51.998;5.140;2022-10-23T01:51:02;5.76;118.99
65559;DHT22;52203;51.998;5.140;2022-10-23T01:53:30;5.79;118.99
65559;DHT22;52203;51.998;5.140;2022-10-23T01:55:59;5.67;118.99
65559;DHT22;52203;51.998;5.140;2022-10-23T01:58:27;5.68;118.99
65559;DHT22;52203;51.998;5.140;2022-10-23T02:00:57;5.61;118.99
65559;DHT22;52203;51.998;5.140;2022-10-23T02:03:26;5.67;118.99
65559;DHT22;52203;51.998;5.140;2022-10-23T02:05:54;5.63;118.99
65559;DHT22;52203;51.998;5.140;2022-10-23T02:08:19;5.69;118.99
65559;DHT22;52203;51.998;5.140;2022-10-23T02:10:53;5.63;118.99
65559;DHT22;52203;51.998;5.140;2022-10-23T02:13:24;5.77;118.99
65559;DHT22;52203;51.998;5.140;2022-10-23T02:16:15;5.64;118.99
65559;DHT22;52203;51.998;5.140;2022-10-23T02:21:46;5.76;118.99
65559;DHT22;52203;51.998;5.140;2022-10-23T02:24:17;5.78;118.99
65559;DHT22;52203;51.998;5.140;2022-10-23T02:26:51;5.77;118.99
65559;DHT22;52203;51.998;5.140;2022-10-23T02:29:30;5.67;118.99
65559;DHT22;52203;51.998;5.140;2022-10-23T02:31:58;5.75;118.99
65559;DHT22;52203;51.998;5.140;2022-10-23T02:34:23;5.69;118.99
65559;DHT22;52203;51.998;5.140;2022-10-23T02:36:49;5.64;118.99
65559;DHT22;52203;51.998;5.140;2022-10-23T02:39:15;5.65;118.99
65559;DHT22;52203;51.998;5.140;2022-10-23T02:41:48;5.59;118.99
65559;DHT22;52203;51.998;5.140;2022-10-23T02:49:44;5.55;118.99
65559;DHT22;52203;51.998;5.140;2022-10-23T02:52:30;5.52;118.99
65559;DHT22;52203;51.998;5.140;2022-10-23T03:00:18;5.43;118.99
65559;DHT22;52203;51.998;5.140;2022-10-23T03:05:25;5.33;118.99
65559;DHT22;52203;51.998;5.140;2022-10-23T03:07:52;5.41;118.99
65559;DHT22;52203;51.998;5.140;2022-10-23T03:10:18;5.42;118.99
65559;DHT22;52203;51.998;5.140;2022-10-23T03:12:44;5.52;118.99
65559;DHT22;52203;51.998;5.140;2022-10-23T03:15:11;5.56;118.99
65559;DHT22;52203;51.998;5.140;2022-10-23T03:17:37;5.56;118.99
65559;DHT22;52203;51.998;5.140;2022-10-23T03:20:04;5.60;118.99
65559;DHT22;52203;51.998;5.140;2022-10-23T03:22:30;5.57;118.99
65559;DHT22;52203;51.998;5.140;2022-10-23T03:24:56;5.70;118.99
65559;DHT22;52203;51.998;5.140;2022-10-23T03:27:21;5.75;118.99
65559;DHT22;52203;51.998;5.140;2022-10-23T03:29:47;5.72;118.99
65559;DHT22;52203;51.998;5.140;2022-10-23T03:32:13;5.64;118.99
65559;DHT22;52203;51.998;5.140;2022-10-23T03:34:38;5.60;118.99
65559;DHT22;52203;51.998;5.140;2022-10-23T03:37:04;5.65;118.99
65559;DHT22;52203;51.998;5.140;2022-10-23T03:39:29;5.66;118.99
65559;DHT22;52203;51.998;5.140;2022-10-23T03:41:55;5.67;118.99
65559;DHT22;52203;51.998;5.140;2022-10-23T03:44:20;5.77;118.99
65559;DHT22;52203;51.998;5.140;2022-10-23T03:46:46;5.69;118.99
65559;DHT22;52203;51.998;5.140;2022-10-23T03:49:11;5.70;118.99
65559;DHT22;52203;51.998;5.140;2022-10-23T03:51:37;5.69;118.99
65559;DHT22;52203;51.998;5.140;2022-10-23T03:54:09;5.68;118.99
65559;DHT22;52203;51.998;5.140;2022-10-23T03:56:35;5.67;118.99
65559;DHT22;52203;51.998;5.140;2022-10-23T03:59:00;5.64;118.99
65559;DHT22;52203;51.998;5.140;2022-10-23T04:01:26;5.71;118.99
65559;DHT22;52203;51.998;5.140;2022-10-23T04:03:52;5.67;118.99
65559;DHT22;52203;51.998;5.140;2022-10-23T04:06:17;5.67;118.99
65559;DHT22;52203;51.998;5.140;2022-10-23T04:08:43;5.72;118.99
65559;DHT22;52203;51.998;5.140;2022-10-23T04:11:10;5.84;118.99
65559;DHT22;52203;51.998;5.140;2022-10-23T04:13:35;5.80;118.99
65559;DHT22;52203;51.998;5.140;2022-10-23T04:16:01;5.87;118.99
65559;DHT22;52203;51.998;5.140;2022-10-23T04:18:27;5.93;118.99
65559;DHT22;52203;51.998;5.140;2022-10-23T04:20:52;6.04;118.99
65559;DHT22;52203;51.998;5.140;2022-10-23T04:23:18;5.98;118.99
65559;DHT22;52203;51.998;5.140;2022-10-23T04:25:44;5.99;118.99
65559;DHT22;52203;51.998;5.140;2022-10-23T04:28:10;6.01;118.99
65559;DHT22;52203;51.998;5.140;2022-10-23T04:30:35;6.10;118.99
65559;DHT22;52203;51.998;5.140;2022-10-23T04:33:01;6.19;118.99
65559;DHT22;52203;51.998;5.140;2022-10-23T04:35:26;6.17;118.99
65559;DHT22;52203;51.998;5.140;2022-10-23T04:37:52;6.19;118.99
65559;DHT22;52203;51.998;5.140;2022-10-23T04:40:18;6.24;118.99
65559;DHT22;52203;51.998;5.140;2022-10-23T04:42:43;6.20;118.99
65559;DHT22;52203;51.998;5.140;2022-10-23T04:45:09;6.23;118.99
65559;DHT22;52203;51.998;5.140;2022-10-23T04:47:35;6.14;118.99
65559;DHT22;52203;51.998;5.140;2022-10-23T04:50:00;6.17;118.99
65559;DHT22;52203;51.998;5.140;2022-10-23T04:52:26;6.19;118.99
65559;DHT22;52203;51.998;5.140;2022-10-23T04:54:51;6.12;118.99
65559;DHT22;52203;51.998;5.140;2022-10-23T04:57:17;6.20;118.99
65559;DHT22;52203;51.998;5.140;2022-10-23T04:59:42;6.12;118.99
65559;DHT22;52203;51.998;5.140;2022-10-23T05:02:08;6.17;118.99
65559;DHT22;52203;51.998;5.140;2022-10-23T05:04:34;6.25;118.99
65559;DHT22;52203;51.998;5.140;2022-10-23T05:06:59;6.26;118.99
65559;DHT22;52203;51.998;5.140;2022-10-23T05:09:25;6.30;118.99
65559;DHT22;52203;51.998;5.140;2022-10-23T05:11:50;6.31;118.99
65559;DHT22;52203;51.998;5.140;2022-10-23T05:14:16;6.31;118.99
65559;DHT22;52203;51.998;5.140;2022-10-23T05:16:54;6.42;118.99
65559;DHT22;52203;51.998;5.140;2022-10-23T05:19:26;6.45;118.99
65559;DHT22;52203;51.998;5.140;2022-10-23T05:21:52;6.49;118.99
65559;DHT22;52203;51.998;5.140;2022-10-23T05:24:21;6.53;118.99
65559;DHT22;52203;51.998;5.140;2022-10-23T05:26:47;6.54;118.99
65559;DHT22;52203;51.998;5.140;2022-10-23T05:29:16;6.46;118.99
65559;DHT22;52203;51.998;5.140;2022-10-23T05:31:42;6.50;118.99
65559;DHT22;52203;51.998;5.140;2022-10-23T05:34:08;6.60;118.99
65559;DHT22;52203;51.998;5.140;2022-10-23T05:36:35;6.52;118.99
65559;DHT22;52203;51.998;5.140;2022-10-23T05:39:03;6.54;118.99
65559;DHT22;52203;51.998;5.140;2022-10-23T05:41:28;6.52;118.99
65559;DHT22;52203;51.998;5.140;2022-10-23T05:43:54;6.48;118.99
65559;DHT22;52203;51.998;5.140;2022-10-23T05:46:20;6.50;118.99
65559;DHT22;52203;51.998;5.140;2022-10-23T05:48:51;6.49;118.99
65559;DHT22;52203;51.998;5.140;2022-10-23T05:51:18;6.46;118.99
65559;DHT22;52203;51.998;5.140;2022-10-23T05:53:47;6.54;118.99
65559;DHT22;52203;51.998;5.140;2022-10-23T05:56:13;6.45;118.99
65559;DHT22;52203;51.998;5.140;2022-10-23T05:58:39;6.39;118.99
65559;DHT22;52203;51.998;5.140;2022-10-23T06:01:11;6.38;118.99
65559;DHT22;52203;51.998;5.140;2022-10-23T06:03:38;6.37;118.99
65559;DHT22;52203;51.998;5.140;2022-10-23T06:06:05;6.33;118.99
65559;DHT22;52203;51.998;5.140;2022-10-23T06:08:31;6.35;118.99
65559;DHT22;52203;51.998;5.140;2022-10-23T06:10:57;6.31;118.99
65559;DHT22;52203;51.998;5.140;2022-10-23T06:13:23;6.29;118.99
65559;DHT22;52203;51.998;5.140;2022-10-23T06:15:49;6.40;118.99
65559;DHT22;52203;51.998;5.140;2022-10-23T06:18:15;6.42;118.99
65559;DHT22;52203;51.998;5.140;2022-10-23T06:20:40;6.39;118.99
65559;DHT22;52203;51.998;5.140;2022-10-23T06:23:06;6.35;118.99
65559;DHT22;52203;51.998;5.140;2022-10-23T06:25:32;6.54;118.99
65559;DHT22;52203;51.998;5.140;2022-10-23T06:27:58;6.43;118.99
65559;DHT22;52203;51.998;5.140;2022-10-23T06:30:23;6.31;118.99
65559;DHT22;52203;51.998;5.140;2022-10-23T06:32:49;6.46;118.99
65559;DHT22;52203;51.998;5.140;2022-10-23T06:35:16;6.48;118.99
65559;DHT22;52203;51.998;5.140;2022-10-23T06:37:42;6.38;118.99
65559;DHT22;52203;51.998;5.140;2022-10-23T06:40:08;6.41;118.99
65559;DHT22;52203;51.998;5.140;2022-10-23T06:42:34;6.40;118.99
65559;DHT22;52203;51.998;5.140;2022-10-23T06:45:00;6.38;118.99
65559;DHT22;52203;51.998;5.140;2022-10-23T06:47:26;6.41;118.99
65559;DHT22;52203;51.998;5.140;2022-10-23T06:49:51;6.45;118.99
65559;DHT22;52203;51.998;5.140;2022-10-23T06:52:17;6.45;118.99
65559;DHT22;52203;51.998;5.140;2022-10-23T06:54:42;6.48;118.99
65559;DHT22;52203;51.998;5.140;2022-10-23T06:57:08;6.45;118.99
65559;DHT22;52203;51.998;5.140;2022-10-23T06:59:34;6.41;118.99
65559;DHT22;52203;51.998;5.140;2022-10-23T07:02:00;6.44;118.99
65559;DHT22;52203;51.998;5.140;2022-10-23T07:04:25;6.55;118.99
65559;DHT22;52203;51.998;5.140;2022-10-23T07:06:54;6.56;118.99
65559;DHT22;52203;51.998;5.140;2022-10-23T07:09:20;6.55;118.99
65559;DHT22;52203;51.998;5.140;2022-10-23T07:11:45;6.60;118.99
65559;DHT22;52203;51.998;5.140;2022-10-23T07:14:11;6.58;118.99
65559;DHT22;52203;51.998;5.140;2022-10-23T07:16:37;6.64;118.99
65559;DHT22;52203;51.998;5.140;2022-10-23T07:19:02;6.68;118.99
65559;DHT22;52203;51.998;5.140;2022-10-23T07:21:32;6.71;118.99
65559;DHT22;52203;51.998;5.140;2022-10-23T07:23:59;6.71;118.99
65559;DHT22;52203;51.998;5.140;2022-10-23T07:26:26;6.84;118.99
65559;DHT22;52203;51.998;5.140;2022-10-23T07:28:52;6.91;118.99
65559;DHT22;52203;51.998;5.140;2022-10-23T07:31:23;6.98;118.99
65559;DHT22;52203;51.998;5.140;2022-10-23T07:33:50;6.86;118.99
65559;DHT22;52203;51.998;5.140;2022-10-23T07:36:17;6.88;118.99
65559;DHT22;52203;51.998;5.140;2022-10-23T07:38:43;6.86;118.99
65559;DHT22;52203;51.998;5.140;2022-10-23T07:41:09;6.85;118.99
65559;DHT22;52203;51.998;5.140;2022-10-23T07:43:35;6.91;118.99
65559;DHT22;52203;51.998;5.140;2022-10-23T07:46:01;6.94;118.99
65559;DHT22;52203;51.998;5.140;2022-10-23T07:48:26;7.02;118.99
65559;DHT22;52203;51.998;5.140;2022-10-23T07:50:56;7.09;118.99
65559;DHT22;52203;51.998;5.140;2022-10-23T07:53:24;7.05;118.99
65559;DHT22;52203;51.998;5.140;2022-10-23T07:55:57;7.11;118.99
65559;DHT22;52203;51.998;5.140;2022-10-23T07:58:24;7.13;118.99
65559;DHT22;52203;51.998;5.140;2022-10-23T08:00:57;7.20;118.99
65559;DHT22;52203;51.998;5.140;2022-10-23T08:03:24;7.23;118.99
65559;DHT22;52203;51.998;5.140;2022-10-23T08:05:51;7.27;118.99
65559;DHT22;52203;51.998;5.140;2022-10-23T08:08:18;7.40;118.99
65559;DHT22;52203;51.998;5.140;2022-10-23T08:10:45;7.43;118.99
65559;DHT22;52203;51.998;5.140;2022-10-23T08:13:11;7.63;118.99
65559;DHT22;52203;51.998;5.140;2022-10-23T08:15:38;7.48;118.99
65559;DHT22;52203;51.998;5.140;2022-10-23T08:18:04;7.48;118.99
65559;DHT22;52203;51.998;5.140;2022-10-23T08:20:30;7.49;118.99
65559;DHT22;52203;51.998;5.140;2022-10-23T08:22:55;7.48;118.99
65559;DHT22;52203;51.998;5.140;2022-10-23T08:25:21;7.52;118.99
65559;DHT22;52203;51.998;5.140;2022-10-23T08:27:46;7.58;118.99
65559;DHT22;52203;51.998;5.140;2022-10-23T08:30:12;7.58;118.99
65559;DHT22;52203;51.998;5.140;2022-10-23T08:32:38;7.62;118.99
65559;DHT22;52203;51.998;5.140;2022-10-23T08:35:03;7.70;118.99
65559;DHT22;52203;51.998;5.140;2022-10-23T08:37:29;7.70;118.99
65559;DHT22;52203;51.998;5.140;2022-10-23T08:39:55;7.70;118.99
65559;DHT22;52203;51.998;5.140;2022-10-23T08:42:23;7.77;118.99
65559;DHT22;52203;51.998;5.140;2022-10-23T08:45:06;7.81;118.99
65559;DHT22;52203;51.998;5.140;2022-10-23T08:47:41;7.84;118.99
65559;DHT22;52203;51.998;5.140;2022-10-23T08:50:27;7.93;118.99
65559;DHT22;52203;51.998;5.140;2022-10-23T08:53:17;8.01;118.99
65559;DHT22;52203;51.998;5.140;2022-10-23T08:55:48;8.08;118.99
65559;DHT22;52203;51.998;5.140;2022-10-23T09:00:56;8.15;118.99
65559;DHT22;52203;51.998;5.140;2022-10-23T09:03:21;8.22;118.99
65559;DHT22;52203;51.998;5.140;2022-10-23T09:11:06;8.17;118.99
65559;DHT22;52203;51.998;5.140;2022-10-23T09:16:32;8.14;118.99
65559;DHT22;52203;51.998;5.140;2022-10-23T09:19:16;8.15;118.99
65559;DHT22;52203;51.998;5.140;2022-10-23T09:21:45;8.18;118.99
65559;DHT22;52203;51.998;5.140;2022-10-23T09:24:16;8.22;118.99
65559;DHT22;52203;51.998;5.140;2022-10-23T09:26:47;8.17;118.99
65559;DHT22;52203;51.998;5.140;2022-10-23T09:29:21;8.16;118.99
65559;DHT22;52203;51.998;5.140;2022-10-23T09:31:55;8.18;118.99
65559;DHT22;52203;51.998;5.140;2022-10-23T09:34:23;8.20;118.99
65559;DHT22;52203;51.998;5.140;2022-10-23T09:36:51;8.22;118.99
65559;DHT22;52203;51.998;5.140;2022-10-23T09:39:23;8.30;118.99
65559;DHT22;52203;51.998;5.140;2022-10-23T09:41:49;8.22;118.99
65559;DHT22;52203;51.998;5.140;2022-10-23T09:44:27;8.23;118.99
65559;DHT22;52203;51.998;5.140;2022-10-23T09:47:09;8.50;118.99
65559;DHT22;52203;51.998;5.140;2022-10-23T09:49:38;8.41;118.99
65559;DHT22;52203;51.998;5.140;2022-10-23T09:54:44;8.50;118.99
65559;DHT22;52203;51.998;5.140;2022-10-23T09:59:57;8.57;118.99
65559;DHT22;52203;51.998;5.140;2022-10-23T10:02:33;8.52;118.99
65559;DHT22;52203;51.998;5.140;2022-10-23T10:05:43;8.62;118.99
65559;DHT22;52203;51.998;5.140;2022-10-23T10:24:27;8.68;118.99
65559;DHT22;52203;51.998;5.140;2022-10-23T10:40:34;9.05;118.99
65559;DHT22;52203;51.998;5.140;2022-10-23T10:43:23;9.08;118.99
65559;DHT22;52203;51.998;5.140;2022-10-23T10:48:40;9.31;118.99
65559;DHT22;52203;51.998;5.140;2022-10-23T10:51:07;9.46;118.99
65559;DHT22;52203;51.998;5.140;2022-10-23T10:56:27;9.36;118.99
65559;DHT22;52203;51.998;5.140;2022-10-23T10:59:18;9.42;118.99
65559;DHT22;52203;51.998;5.140;2022-10-23T11:04:27;9.67;118.99
65559;DHT22;52203;51.998;5.140;2022-10-23T11:06:57;9.47;118.99
65559;DHT22;52203;51.998;5.140;2022-10-23T11:09:29;9.52;118.99
65559;DHT22;52203;51.998;5.140;2022-10-23T11:11:55;9.55;118.99
65559;DHT22;52203;51.998;5.140;2022-10-23T11:14:30;9.64;118.99
65559;DHT22;52203;51.998;5.140;2022-10-23T11:17:18;9.69;118.99
65559;DHT22;52203;51.998;5.140;2022-10-23T11:25:12;9.90;118.99
65559;DHT22;52203;51.998;5.140;2022-10-23T11:34:31;10.33;118.99
65559;DHT22;52203;51.998;5.140;2022-10-23T11:36:57;10.46;118.99
65559;DHT22;52203;51.998;5.140;2022-10-23T11:39:30;10.55;118.99
65559;DHT22;52203;51.998;5.140;2022-10-23T11:44:38;10.63;118.99
65559;DHT22;52203;51.998;5.140;2022-10-23T11:52:37;10.96;118.99
65559;DHT22;52203;51.998;5.140;2022-10-23T11:58:24;11.14;118.99
65559;DHT22;52203;51.998;5.140;2022-10-23T12:01:04;11.02;118.99
65559;DHT22;52203;51.998;5.140;2022-10-23T12:06:45;11.05;118.99
65559;DHT22;52203;51.998;5.140;2022-10-23T12:11:48;11.01;118.99
65559;DHT22;52203;51.998;5.140;2022-10-23T12:14:35;11.04;118.99
65559;DHT22;52203;51.998;5.140;2022-10-23T12:17:01;11.08;118.99
65559;DHT22;52203;51.998;5.140;2022-10-23T12:19:29;11.12;118.99
65559;DHT22;52203;51.998;5.140;2022-10-23T12:22:00;11.16;118.99
65559;DHT22;52203;51.998;5.140;2022-10-23T12:24:59;11.27;118.99
65559;DHT22;52203;51.998;5.140;2022-10-23T12:33:27;11.34;118.99
65559;DHT22;52203;51.998;5.140;2022-10-23T12:38:56;11.44;118.99
65559;DHT22;52203;51.998;5.140;2022-10-23T12:41:27;11.48;118.99
65559;DHT22;52203;51.998;5.140;2022-10-23T12:43:59;11.45;118.99
65559;DHT22;52203;51.998;5.140;2022-10-23T12:46:41;11.43;118.99
65559;DHT22;52203;51.998;5.140;2022-10-23T12:49:19;11.48;118.99
65559;DHT22;52203;51.998;5.140;2022-10-23T12:54:21;11.60;118.99
65559;DHT22;52203;51.998;5.140;2022-10-23T12:56:47;11.54;118.99
65559;DHT22;52203;51.998;5.140;2022-10-23T12:59:22;11.49;118.99
65559;DHT22;52203;51.998;5.140;2022-10-23T13:01:50;11.56;118.99
65559;DHT22;52203;51.998;5.140;2022-10-23T13:04:24;11.54;118.99
65559;DHT22;52203;51.998;5.140;2022-10-23T13:06:51;11.55;118.99
65559;DHT22;52203;51.998;5.140;2022-10-23T13:09:40;11.58;118.99
65559;DHT22;52203;51.998;5.140;2022-10-23T13:12:07;11.56;118.99
65559;DHT22;52203;51.998;5.140;2022-10-23T13:14:54;11.62;118.99
65559;DHT22;52203;51.998;5.140;2022-10-23T13:17:21;11.66;118.99
65559;DHT22;52203;51.998;5.140;2022-10-23T13:20:29;11.66;118.99
65559;DHT22;52203;51.998;5.140;2022-10-23T13:25:40;11.69;118.99
65559;DHT22;52203;51.998;5.140;2022-10-23T13:28:22;11.67;118.99
65559;DHT22;52203;51.998;5.140;2022-10-23T13:33:50;11.78;118.99
65559;DHT22;52203;51.998;5.140;2022-10-23T13:38:58;11.79;118.99
65559;DHT22;52203;51.998;5.140;2022-10-23T13:41:26;11.77;118.99
65559;DHT22;52203;51.998;5.140;2022-10-23T13:43:53;11.79;118.99
65559;DHT22;52203;51.998;5.140;2022-10-23T13:46:21;11.75;118.99
65559;DHT22;52203;51.998;5.140;2022-10-23T13:48:48;11.69;118.99
65559;DHT22;52203;51.998;5.140;2022-10-23T13:51:19;11.72;118.99
65559;DHT22;52203;51.998;5.140;2022-10-23T13:53:45;11.75;118.99
65559;DHT22;52203;51.998;5.140;2022-10-23T13:56:12;11.71;118.99
65559;DHT22;52203;51.998;5.140;2022-10-23T13:58:38;11.78;118.99
65559;DHT22;52203;51.998;5.140;2022-10-23T14:01:05;11.72;118.99
65559;DHT22;52203;51.998;5.140;2022-10-23T14:03:30;11.73;118.99
65559;DHT22;52203;51.998;5.140;2022-10-23T14:05:56;11.74;118.99
65559;DHT22;52203;51.998;5.140;2022-10-23T14:08:21;11.76;118.99
65559;DHT22;52203;51.998;5.140;2022-10-23T14:10:47;11.87;118.99
65559;DHT22;52203;51.998;5.140;2022-10-23T14:13:13;11.88;118.99
65559;DHT22;52203;51.998;5.140;2022-10-23T14:15:38;11.84;118.99
65559;DHT22;52203;51.998;5.140;2022-10-23T14:18:04;11.93;118.99
65559;DHT22;52203;51.998;5.140;2022-10-23T14:20:30;11.99;118.99
65559;DHT22;52203;51.998;5.140;2022-10-23T14:22:56;12.25;118.99
65559;DHT22;52203;51.998;5.140;2022-10-23T14:25:22;12.28;118.99
65559;DHT22;52203;51.998;5.140;2022-10-23T14:27:48;12.25;118.99
65559;DHT22;52203;51.998;5.140;2022-10-23T14:30:13;12.14;118.99
65559;DHT22;52203;51.998;5.140;2022-10-23T14:32:39;12.01;118.99
65559;DHT22;52203;51.998;5.140;2022-10-23T14:35:05;11.92;118.99
65559;DHT22;52203;51.998;5.140;2022-10-23T14:37:31;11.87;118.99
65559;DHT22;52203;51.998;5.140;2022-10-23T14:39:57;11.84;118.99
65559;DHT22;52203;51.998;5.140;2022-10-23T14:42:24;11.85;118.99
65559;DHT22;52203;51.998;5.140;2022-10-23T14:44:50;11.82;118.99
65559;DHT22;52203;51.998;5.140;2022-10-23T14:47:16;11.81;118.99
65559;DHT22;52203;51.998;5.140;2022-10-23T14:49:46;11.79;118.99
65559;DHT22;52203;51.998;5.140;2022-10-23T14:52:13;11.75;118.99
65559;DHT22;52203;51.998;5.140;2022-10-23T14:54:42;11.75;118.99
65559;DHT22;52203;51.998;5.140;2022-10-23T14:57:08;11.73;118.99
65559;DHT22;52203;51.998;5.140;2022-10-23T14:59:33;11.64;118.99
65559;DHT22;52203;51.998;5.140;2022-10-23T15:01:59;11.57;118.99
65559;DHT22;52203;51.998;5.140;2022-10-23T15:04:25;11.55;118.99
65559;DHT22;52203;51.998;5.140;2022-10-23T15:06:51;11.47;118.99
65559;DHT22;52203;51.998;5.140;2022-10-23T15:09:17;11.44;118.99
65559;DHT22;52203;51.998;5.140;2022-10-23T15:11:44;11.39;118.99
65559;DHT22;52203;51.998;5.140;2022-10-23T15:14:10;11.36;118.99
65559;DHT22;52203;51.998;5.140;2022-10-23T15:16:36;11.29;118.99
65559;DHT22;52203;51.998;5.140;2022-10-23T15:19:14;11.24;118.99
65559;DHT22;52203;51.998;5.140;2022-10-23T15:21:41;11.19;118.99
65559;DHT22;52203;51.998;5.140;2022-10-23T15:24:06;11.16;118.99
65559;DHT22;52203;51.998;5.140;2022-10-23T15:26:34;11.14;118.99
65559;DHT22;52203;51.998;5.140;2022-10-23T15:29:01;11.08;118.99
65559;DHT22;52203;51.998;5.140;2022-10-23T15:34:04;10.99;118.99
65559;DHT22;52203;51.998;5.140;2022-10-23T15:36:30;10.92;118.99
65559;DHT22;52203;51.998;5.140;2022-10-23T15:38:56;10.87;118.99
65559;DHT22;52203;51.998;5.140;2022-10-23T15:41:30;10.85;118.99
65559;DHT22;52203;51.998;5.140;2022-10-23T15:44:00;10.83;118.99
65559;DHT22;52203;51.998;5.140;2022-10-23T15:46:27;10.84;118.99
65559;DHT22;52203;51.998;5.140;2022-10-23T15:48:53;10.82;118.99
65559;DHT22;52203;51.998;5.140;2022-10-23T15:51:19;10.81;118.99
65559;DHT22;52203;51.998;5.140;2022-10-23T15:53:45;10.80;118.99
65559;DHT22;52203;51.998;5.140;2022-10-23T15:56:11;10.84;118.99
65559;DHT22;52203;51.998;5.140;2022-10-23T15:58:37;10.79;118.99
65559;DHT22;52203;51.998;5.140;2022-10-23T16:01:04;10.74;118.99
65559;DHT22;52203;51.998;5.140;2022-10-23T16:03:35;10.69;118.99
65559;DHT22;52203;51.998;5.140;2022-10-23T16:06:09;10.66;118.99
65559;DHT22;52203;51.998;5.140;2022-10-23T16:08:35;10.79;118.99
65559;DHT22;52203;51.998;5.140;2022-10-23T16:11:01;10.74;118.99
65559;DHT22;52203;51.998;5.140;2022-10-23T16:13:27;10.70;118.99
65559;DHT22;52203;51.998;5.140;2022-10-23T16:15:52;10.78;118.99
65559;DHT22;52203;51.998;5.140;2022-10-23T16:18:19;10.73;118.99
65559;DHT22;52203;51.998;5.140;2022-10-23T16:20:45;10.71;118.99
65559;DHT22;52203;51.998;5.140;2022-10-23T16:23:11;10.66;118.99
65559;DHT22;52203;51.998;5.140;2022-10-23T16:25:37;10.66;118.99
65559;DHT22;52203;51.998;5.140;2022-10-23T16:28:04;10.69;118.99
65559;DHT22;52203;51.998;5.140;2022-10-23T16:30:30;10.72;118.99
65559;DHT22;52203;51.998;5.140;2022-10-23T16:32:55;10.67;118.99
65559;DHT22;52203;51.998;5.140;2022-10-23T16:35:22;10.66;118.99
65559;DHT22;52203;51.998;5.140;2022-10-23T16:37:47;10.64;118.99
65559;DHT22;52203;51.998;5.140;2022-10-23T16:40:13;10.64;118.99
65559;DHT22;52203;51.998;5.140;2022-10-23T16:42:39;10.59;118.99
65559;DHT22;52203;51.998;5.140;2022-10-23T16:45:06;10.56;118.99
65559;DHT22;52203;51.998;5.140;2022-10-23T16:47:33;10.44;118.99
65559;DHT22;52203;51.998;5.140;2022-10-23T16:49:58;10.54;118.99
65559;DHT22;52203;51.998;5.140;2022-10-23T16:52:25;10.45;118.99
65559;DHT22;52203;51.998;5.140;2022-10-23T16:54:51;10.45;118.99
65559;DHT22;52203;51.998;5.140;2022-10-23T16:57:17;10.51;118.99
65559;DHT22;52203;51.998;5.140;2022-10-23T16:59:42;10.56;118.99
65559;DHT22;52203;51.998;5.140;2022-10-23T17:02:10;10.49;118.99
65559;DHT22;52203;51.998;5.140;2022-10-23T17:04:36;10.51;118.99
65559;DHT22;52203;51.998;5.140;2022-10-23T17:07:02;10.49;118.99
65559;DHT22;52203;51.998;5.140;2022-10-23T17:09:28;10.50;118.99
65559;DHT22;52203;51.998;5.140;2022-10-23T17:11:56;10.39;118.99
65559;DHT22;52203;51.998;5.140;2022-10-23T17:14:22;10.44;118.99
65559;DHT22;52203;51.998;5.140;2022-10-23T17:16:55;10.42;118.99
65559;DHT22;52203;51.998;5.140;2022-10-23T17:19:24;10.41;118.99
65559;DHT22;52203;51.998;5.140;2022-10-23T17:21:57;10.29;118.99
65559;DHT22;52203;51.998;5.140;2022-10-23T17:24:24;10.33;118.99
65559;DHT22;52203;51.998;5.140;2022-10-23T17:26:50;10.36;118.99
65559;DHT22;52203;51.998;5.140;2022-10-23T17:29:16;10.23;118.99
65559;DHT22;52203;51.998;5.140;2022-10-23T17:31:48;10.12;118.99
65559;DHT22;52203;51.998;5.140;2022-10-23T17:34:20;10.08;118.99
65559;DHT22;52203;51.998;5.140;2022-10-23T17:36:51;10.16;118.99
65559;DHT22;52203;51.998;5.140;2022-10-23T17:39:20;10.15;118.99
65559;DHT22;52203;51.998;5.140;2022-10-23T17:41:48;10.09;118.99
65559;DHT22;52203;51.998;5.140;2022-10-23T17:44:17;10.15;118.99
65559;DHT22;52203;51.998;5.140;2022-10-23T17:46:43;10.28;118.99